createdAt,value
2022-09-14T00:01:25.711Z,52.00
2022-09-14T00:03:59.283Z,52.10
2022-09-14T00:06:26.793Z,52.30
2022-09-14T00:08:55.137Z,52.10
2022-09-14T00:11:23.934Z,52.00
2022-09-14T00:13:51.318Z,52.30
2022-09-14T00:16:21.391Z,52.70
2022-09-14T00:18:53.103Z,52.60
2022-09-14T00:21:20.240Z,52.60
2022-09-14T00:23:46.936Z,52.70
2022-09-14T00:26:17.685Z,52.80
2022-09-14T00:28:47.784Z,52.90
2022-09-14T00:31:15.531Z,53.10
2022-09-14T00:33:43.619Z,53.00
2022-09-14T00:36:20.288Z,52.70
2022-09-14T00:38:48.072Z,52.60
2022-09-14T00:41:20.008Z,52.60
2022-09-14T00:43:55.858Z,52.40
2022-09-14T00:46:23.703Z,52.60
2022-09-14T00:48:50.609Z,52.50
2022-09-14T00:51:18.940Z,52.60
2022-09-14T00:53:46.412Z,52.90
2022-09-14T00:56:14.261Z,52.90
2022-09-14T00:58:43.567Z,53.00
2022-09-14T01:01:10.443Z,53.30
2022-09-14T01:03:37.288Z,53.40
2022-09-14T01:06:15.541Z,53.00
2022-09-14T01:09:19.907Z,52.80
2022-09-14T01:11:51.851Z,52.70
2022-09-14T01:14:32.972Z,52.60
2022-09-14T01:17:14.783Z,52.80
2022-09-14T01:20:11.010Z,52.90
2022-09-14T01:22:52.227Z,52.90
2022-09-14T01:25:33.810Z,53.10
2022-09-14T01:28:05.163Z,53.20
2022-09-14T01:30:34.638Z,53.60
2022-09-14T01:33:19.305Z,53.60
2022-09-14T01:35:55.881Z,53.60
2022-09-14T01:38:30.827Z,53.50
2022-09-14T01:41:00.920Z,53.50
2022-09-14T01:43:36.654Z,53.20
2022-09-14T01:46:27.005Z,53.10
2022-09-14T01:49:32.267Z,53.10
2022-09-14T01:52:05.172Z,53.10
2022-09-14T01:54:42.140Z,53.10
2022-09-14T01:57:27.700Z,53.10
2022-09-14T01:59:58.375Z,53.00
2022-09-14T02:02:34.123Z,53.00
2022-09-14T02:05:27.302Z,53.10
2022-09-14T02:07:54.632Z,53.30
2022-09-14T02:10:22.717Z,53.30
2022-09-14T02:12:49.517Z,53.30
2022-09-14T02:15:16.706Z,53.30
2022-09-14T02:17:43.992Z,53.40
2022-09-14T02:20:22.571Z,53.10
2022-09-14T02:22:51.683Z,53.00
2022-09-14T02:25:19.656Z,53.10
2022-09-14T02:27:48.138Z,53.30
2022-09-14T02:30:16.006Z,53.40
2022-09-14T02:33:25.424Z,53.40
2022-09-14T02:35:58.423Z,53.60
2022-09-14T02:38:32.979Z,53.20
2022-09-14T02:41:12.104Z,53.20
2022-09-14T02:43:41.646Z,53.20
2022-09-14T02:46:43.503Z,53.30
2022-09-14T02:49:21.035Z,53.40
2022-09-14T02:51:50.909Z,53.50
2022-09-14T02:54:18.902Z,53.70
2022-09-14T02:56:46.126Z,53.80
2022-09-14T02:59:12.924Z,53.80
2022-09-14T03:01:39.736Z,53.90
2022-09-14T03:04:06.507Z,54.00
2022-09-14T03:06:33.263Z,54.00
2022-09-14T03:08:59.979Z,54.10
2022-09-14T03:11:26.676Z,54.00
2022-09-14T03:13:53.380Z,54.80
2022-09-14T03:16:20.368Z,54.00
2022-09-14T03:18:47.217Z,53.90
2022-09-14T03:21:16.315Z,53.80
2022-09-14T03:23:45.987Z,53.80
2022-09-14T03:26:18.875Z,53.40
2022-09-14T03:28:50.560Z,53.40
2022-09-14T03:31:17.753Z,53.60
2022-09-14T03:33:44.660Z,53.80
2022-09-14T03:36:17.724Z,53.80
2022-09-14T03:38:50.637Z,53.90
2022-09-14T03:41:18.308Z,54.10
2022-09-14T03:43:45.388Z,54.30
2022-09-14T03:46:21.220Z,54.50
2022-09-14T03:48:48.435Z,54.90
2022-09-14T03:51:15.927Z,55.00
2022-09-14T03:53:44.823Z,55.20
2022-09-14T03:56:17.451Z,55.20
2022-09-14T03:58:45.551Z,55.20
2022-09-14T04:01:18.079Z,55.30
2022-09-14T04:03:45.797Z,55.40
2022-09-14T04:06:12.801Z,55.60
2022-09-14T04:08:41.037Z,55.60
2022-09-14T04:11:17.410Z,55.80
2022-09-14T04:13:45.078Z,55.80
2022-09-14T04:16:12.557Z,55.90
2022-09-14T04:18:39.587Z,56.10
2022-09-14T04:21:15.768Z,56.00
2022-09-14T04:24:03.402Z,56.00
2022-09-14T04:26:31.099Z,55.90
2022-09-14T04:28:58.010Z,55.80
2022-09-14T04:31:25.458Z,56.10
2022-09-14T04:33:56.068Z,56.00
2022-09-14T04:36:28.096Z,56.10
2022-09-14T04:38:57.027Z,56.30
2022-09-14T04:41:24.211Z,56.30
2022-09-14T04:43:52.124Z,56.20
2022-09-14T04:46:25.492Z,55.90
2022-09-14T04:48:52.451Z,55.70
2022-09-14T04:51:22.878Z,55.40
2022-09-14T04:53:51.587Z,55.50
2022-09-14T04:56:21.658Z,55.70
2022-09-14T04:58:51.818Z,56.00
2022-09-14T05:01:21.847Z,56.00
2022-09-14T05:03:49.098Z,56.00
2022-09-14T05:06:18.534Z,56.30
2022-09-14T05:08:46.169Z,56.30
2022-09-14T05:11:18.723Z,56.20
2022-09-14T05:13:49.804Z,56.30
2022-09-14T05:16:19.965Z,56.30
2022-09-14T05:18:47.597Z,56.40
2022-09-14T05:21:16.899Z,56.40
2022-09-14T05:23:44.137Z,56.40
2022-09-14T05:26:11.652Z,56.20
2022-09-14T05:28:38.728Z,56.30
2022-09-14T05:31:07.297Z,56.30
2022-09-14T05:33:34.591Z,56.40
2022-09-14T05:36:06.274Z,56.50
2022-09-14T05:38:35.207Z,56.60
2022-09-14T05:41:02.148Z,56.80
2022-09-14T05:43:30.509Z,56.80
2022-09-14T05:46:02.559Z,56.70
2022-09-14T05:48:37.069Z,56.80
2022-09-14T05:51:10.339Z,56.80
2022-09-14T05:53:37.380Z,56.90
2022-09-14T05:56:06.998Z,56.60
2022-09-14T05:58:34.943Z,56.40
2022-09-14T06:01:09.357Z,56.50
2022-09-14T06:03:36.435Z,56.80
2022-09-14T06:06:05.800Z,56.90
2022-09-14T06:08:33.135Z,56.80
2022-09-14T06:11:09.609Z,56.80
2022-09-14T06:13:37.017Z,56.90
2022-09-14T06:16:10.024Z,57.00
2022-09-14T06:18:37.803Z,57.00
2022-09-14T06:21:05.103Z,57.90
2022-09-14T06:23:32.561Z,57.20
2022-09-14T06:26:01.065Z,57.20
2022-09-14T06:28:28.704Z,57.20
2022-09-14T06:30:56.289Z,57.00
2022-09-14T06:33:23.500Z,56.70
2022-09-14T06:36:07.388Z,56.80
2022-09-14T06:38:34.065Z,56.80
2022-09-14T06:41:04.578Z,56.50
2022-09-14T06:43:33.827Z,56.40
2022-09-14T06:46:10.990Z,56.30
2022-09-14T06:48:40.702Z,56.10
2022-09-14T06:51:20.970Z,56.00
2022-09-14T06:53:48.923Z,55.90
2022-09-14T06:56:16.240Z,55.70
2022-09-14T06:58:43.621Z,55.50
2022-09-14T07:01:17.031Z,55.20
2022-09-14T07:03:44.592Z,55.30
2022-09-14T07:06:14.575Z,55.50
2022-09-14T07:08:42.070Z,55.60
2022-09-14T07:11:10.515Z,55.30
2022-09-14T07:13:37.407Z,55.20
2022-09-14T07:16:04.712Z,55.40
2022-09-14T07:18:32.748Z,55.40
2022-09-14T07:21:19.335Z,55.70
2022-09-14T07:23:47.455Z,55.80
2022-09-14T07:26:20.247Z,55.70
2022-09-14T07:28:50.424Z,55.80
2022-09-14T07:31:19.217Z,55.60
2022-09-14T07:33:46.428Z,55.50
2022-09-14T07:36:14.121Z,55.70
2022-09-14T07:38:52.093Z,55.80
2022-09-14T07:41:29.912Z,55.80
2022-09-14T07:44:00.269Z,55.80
2022-09-14T07:46:29.344Z,55.90
2022-09-14T07:48:58.226Z,56.00
2022-09-14T07:51:26.147Z,56.20
2022-09-14T07:53:53.007Z,56.10
2022-09-14T07:56:21.646Z,56.10
2022-09-14T07:58:52.682Z,56.20
2022-09-14T08:01:22.054Z,56.00
2022-09-14T08:03:49.349Z,55.50
2022-09-14T08:06:15.953Z,55.50
2022-09-14T08:08:44.819Z,55.00
2022-09-14T08:11:14.969Z,55.30
2022-09-14T08:13:44.568Z,55.30
2022-09-14T08:16:12.752Z,55.10
2022-09-14T08:18:40.154Z,55.20
2022-09-14T08:21:12.489Z,55.30
2022-09-14T08:23:40.285Z,55.20
2022-09-14T08:26:12.472Z,55.40
2022-09-14T08:28:39.708Z,55.50
2022-09-14T08:31:18.267Z,55.50
2022-09-14T08:33:47.259Z,55.40
2022-09-14T08:36:15.983Z,55.30
2022-09-14T08:38:42.723Z,55.30
2022-09-14T08:41:18.485Z,55.30
2022-09-14T08:43:45.511Z,55.50
2022-09-14T08:46:29.856Z,55.60
2022-09-14T08:48:57.010Z,55.70
2022-09-14T08:51:24.177Z,55.50
2022-09-14T08:53:53.410Z,55.40
2022-09-14T08:56:33.684Z,55.50
2022-09-14T08:59:27.075Z,55.60
2022-09-14T09:02:22.895Z,55.60
2022-09-14T09:05:10.843Z,55.50
2022-09-14T09:08:00.063Z,55.30
2022-09-14T09:10:27.603Z,55.50
2022-09-14T09:13:00.855Z,55.50
2022-09-14T09:15:45.018Z,55.70
2022-09-14T09:18:20.657Z,55.30
2022-09-14T09:21:01.717Z,55.40
2022-09-14T09:23:30.678Z,55.60
2022-09-14T09:26:22.504Z,55.20
2022-09-14T09:28:53.339Z,55.10
2022-09-14T09:31:27.778Z,55.10
2022-09-14T09:34:31.182Z,55.40
2022-09-14T09:37:19.304Z,55.20
2022-09-14T09:39:46.806Z,54.90
2022-09-14T09:42:24.045Z,54.90
2022-09-14T09:45:01.768Z,54.80
2022-09-14T09:47:36.814Z,54.70
2022-09-14T09:50:21.436Z,54.50
2022-09-14T09:52:58.120Z,54.30
2022-09-14T09:55:32.218Z,54.40
2022-09-14T09:58:27.973Z,54.30
2022-09-14T10:01:01.210Z,54.50
2022-09-14T10:03:31.805Z,54.10
2022-09-14T10:06:04.485Z,53.10
2022-09-14T10:08:35.095Z,53.50
2022-09-14T10:11:03.604Z,53.10
2022-09-14T10:13:38.177Z,53.00
2022-09-14T10:16:08.181Z,53.20
2022-09-14T10:18:35.556Z,53.60
2022-09-14T10:21:02.527Z,54.00
2022-09-14T10:23:33.364Z,54.20
2022-09-14T10:26:12.202Z,53.20
2022-09-14T10:28:50.647Z,53.50
2022-09-14T10:31:20.368Z,53.90
2022-09-14T10:33:51.958Z,54.30
2022-09-14T10:36:54.507Z,54.70
2022-09-14T10:39:41.323Z,54.30
2022-09-14T10:42:34.155Z,54.70
2022-09-14T10:45:23.773Z,54.80
2022-09-14T10:48:12.248Z,54.90
2022-09-14T10:50:46.053Z,54.70
2022-09-14T10:53:31.264Z,54.70
2022-09-14T10:56:30.852Z,54.30
2022-09-14T10:59:48.872Z,53.50
2022-09-14T11:02:54.292Z,53.80
2022-09-14T11:05:31.031Z,53.50
2022-09-14T11:08:10.568Z,53.20
2022-09-14T11:11:09.297Z,53.20
2022-09-14T11:13:55.047Z,51.90
2022-09-14T11:16:28.911Z,51.70
2022-09-14T11:19:04.206Z,51.40
2022-09-14T11:21:37.606Z,51.80
2022-09-14T11:24:35.261Z,52.20
2022-09-14T11:27:08.161Z,51.20
2022-09-14T11:30:01.393Z,51.60
2022-09-14T11:32:34.881Z,52.00
2022-09-14T11:35:15.538Z,51.70
2022-09-14T11:37:47.376Z,51.80
2022-09-14T11:40:22.563Z,52.00
2022-09-14T11:42:52.956Z,52.10
2022-09-14T11:45:27.309Z,52.20
2022-09-14T11:48:01.207Z,50.80
2022-09-14T11:50:31.495Z,51.30
2022-09-14T11:53:06.962Z,51.30
2022-09-14T11:55:34.641Z,50.80
2022-09-14T11:58:05.016Z,50.50
2022-09-14T12:00:43.746Z,49.60
2022-09-14T12:03:15.359Z,49.10
2022-09-14T12:05:44.797Z,49.90
2022-09-14T12:08:28.875Z,50.00
2022-09-14T12:11:09.480Z,49.90
2022-09-14T12:13:36.694Z,49.90
2022-09-14T12:16:06.508Z,48.60
2022-09-14T12:18:39.928Z,48.50
2022-09-14T12:21:25.811Z,48.20
2022-09-14T12:23:57.703Z,48.20
2022-09-14T12:26:31.580Z,47.00
2022-09-14T12:29:31.122Z,45.00
2022-09-14T12:32:05.099Z,43.90
2022-09-14T12:34:33.590Z,44.20
2022-09-14T12:37:05.699Z,45.00
2022-09-14T12:39:36.231Z,45.10
2022-09-14T12:42:32.229Z,44.80
2022-09-14T12:45:37.463Z,45.00
2022-09-14T12:48:04.494Z,44.90
2022-09-14T12:50:35.610Z,43.60
2022-09-14T12:53:23.393Z,43.20
2022-09-14T12:56:00.604Z,44.30
2022-09-14T12:58:45.664Z,44.70
2022-09-14T13:01:37.687Z,45.70
2022-09-14T13:04:05.566Z,44.90
2022-09-14T13:06:43.239Z,42.10
2022-09-14T13:09:28.267Z,41.90
2022-09-14T13:12:01.948Z,40.10
2022-09-14T13:14:32.709Z,40.10
2022-09-14T13:17:03.299Z,39.30
2022-09-14T13:19:32.019Z,37.70
2022-09-14T13:22:01.570Z,38.30
2022-09-14T13:24:38.724Z,38.40
2022-09-14T13:27:15.327Z,38.80
2022-09-14T13:29:42.210Z,38.20
2022-09-14T13:32:14.635Z,37.60
2022-09-14T13:34:41.449Z,36.60
2022-09-14T13:37:13.268Z,36.20
2022-09-14T13:39:41.845Z,37.80
2022-09-14T13:42:10.124Z,38.30
2022-09-14T13:44:45.227Z,38.10
2022-09-14T13:47:14.154Z,39.40
2022-09-14T13:49:42.673Z,40.70
2022-09-14T13:52:22.410Z,40.80
2022-09-14T13:55:21.698Z,41.10
2022-09-14T13:58:09.465Z,39.60
2022-09-14T14:00:56.416Z,40.20
2022-09-14T14:03:32.816Z,40.70
2022-09-14T14:06:02.908Z,39.10
2022-09-14T14:08:36.929Z,38.70
2022-09-14T14:11:08.328Z,39.60
2022-09-14T14:13:38.071Z,40.20
2022-09-14T14:16:22.605Z,39.40
2022-09-14T14:18:52.043Z,41.90
2022-09-14T14:21:21.751Z,41.40
2022-09-14T14:24:12.156Z,40.40
2022-09-14T14:26:38.189Z,40.50
2022-09-14T14:29:12.234Z,40.80
2022-09-14T14:31:39.198Z,40.00
2022-09-14T14:34:18.665Z,40.40
2022-09-14T14:36:47.160Z,40.80
2022-09-14T14:39:14.286Z,41.80
2022-09-14T14:41:41.162Z,41.10
2022-09-14T14:44:13.568Z,41.40
2022-09-14T14:46:42.218Z,42.80
2022-09-14T14:49:14.218Z,42.80
2022-09-14T14:51:41.558Z,42.60
2022-09-14T14:54:09.539Z,41.90
2022-09-14T14:56:39.347Z,42.70
2022-09-14T14:59:19.580Z,42.90
2022-09-14T15:01:47.074Z,42.30
2022-09-14T15:04:14.179Z,43.10
2022-09-14T15:06:40.933Z,43.40
2022-09-14T15:09:15.090Z,42.70
2022-09-14T15:11:41.902Z,43.30
2022-09-14T15:14:15.716Z,44.10
2022-09-14T15:16:43.454Z,44.30
2022-09-14T15:19:12.976Z,44.20
2022-09-14T15:21:40.695Z,43.80
2022-09-14T15:24:08.245Z,43.80
2022-09-14T15:26:35.190Z,44.60
2022-09-14T15:29:03.014Z,44.70
2022-09-14T15:31:30.011Z,44.00
2022-09-14T15:33:58.186Z,44.30
2022-09-14T15:36:50.238Z,45.40
2022-09-14T15:39:23.196Z,43.80
2022-09-14T15:41:50.677Z,43.80
2022-09-14T15:44:17.855Z,43.50
2022-09-14T15:46:46.766Z,44.70
2022-09-14T15:49:24.276Z,45.60
2022-09-14T15:51:52.637Z,45.80
2022-09-14T15:54:23.041Z,45.10
2022-09-14T15:56:51.521Z,45.60
2022-09-14T15:59:19.259Z,46.40
2022-09-14T16:01:46.589Z,47.60
2022-09-14T16:04:13.712Z,47.10
2022-09-14T16:06:41.263Z,46.40
2022-09-14T16:09:10.009Z,45.60
2022-09-14T16:11:37.784Z,46.80
2022-09-14T16:14:05.596Z,46.40
2022-09-14T16:16:34.694Z,46.50
2022-09-14T16:19:10.620Z,46.40
2022-09-14T16:21:38.220Z,46.70
2022-09-14T16:24:07.867Z,47.00
2022-09-14T16:26:36.780Z,46.90
2022-09-14T16:29:05.537Z,46.90
2022-09-14T16:31:37.510Z,47.50
2022-09-14T16:34:14.530Z,46.90
2022-09-14T16:36:42.033Z,46.00
2022-09-14T16:39:12.949Z,45.90
2022-09-14T16:41:41.734Z,45.40
2022-09-14T16:44:21.441Z,45.60
2022-09-14T16:46:49.489Z,45.30
2022-09-14T16:49:17.850Z,45.70
2022-09-14T16:51:45.229Z,45.10
2022-09-14T16:54:17.151Z,45.10
2022-09-14T16:56:45.023Z,45.30
2022-09-14T16:59:12.252Z,45.80
2022-09-14T17:01:41.679Z,46.30
2022-09-14T17:04:13.818Z,46.90
2022-09-14T17:06:42.492Z,46.40
2022-09-14T17:09:12.751Z,46.70
2022-09-14T17:11:40.655Z,47.20
2022-09-14T17:14:08.908Z,47.80
2022-09-14T17:16:35.704Z,48.00
2022-09-14T17:19:04.499Z,47.80
2022-09-14T17:21:34.233Z,47.30
2022-09-14T17:24:02.185Z,46.80
2022-09-14T17:26:29.062Z,47.30
2022-09-14T17:28:58.341Z,48.10
2022-09-14T17:31:27.989Z,47.60
2022-09-14T17:33:57.351Z,47.50
2022-09-14T17:36:25.193Z,47.30
2022-09-14T17:38:52.588Z,47.70
2022-09-14T17:41:21.435Z,48.10
2022-09-14T17:43:53.519Z,48.10
2022-09-14T17:46:22.649Z,48.10
2022-09-14T17:48:50.698Z,48.10
2022-09-14T17:51:24.255Z,47.80
2022-09-14T17:53:53.277Z,47.60
2022-09-14T17:56:22.390Z,47.60
2022-09-14T17:58:56.840Z,47.80
2022-09-14T18:01:23.690Z,47.80
2022-09-14T18:03:54.201Z,48.20
2022-09-14T18:06:23.944Z,48.60
2022-09-14T18:09:00.344Z,48.80
2022-09-14T18:11:28.285Z,48.80
2022-09-14T18:13:55.488Z,48.30
2022-09-14T18:16:23.743Z,48.10
2022-09-14T18:18:50.892Z,48.00
2022-09-14T18:21:18.638Z,47.60
2022-09-14T18:23:52.881Z,47.90
2022-09-14T18:26:20.088Z,48.40
2022-09-14T18:28:47.318Z,48.00
2022-09-14T18:31:16.049Z,48.30
2022-09-14T18:33:54.850Z,48.30
2022-09-14T18:36:22.498Z,48.90
2022-09-14T18:38:51.359Z,48.30
2022-09-14T18:41:18.798Z,48.40
2022-09-14T18:43:49.900Z,48.60
2022-09-14T18:46:18.024Z,48.60
2022-09-14T18:48:45.470Z,48.40
2022-09-14T18:51:14.173Z,48.60
2022-09-14T18:53:41.406Z,48.70
2022-09-14T18:56:10.783Z,49.00
2022-09-14T18:58:42.987Z,49.70
2022-09-14T19:01:10.647Z,50.10
2022-09-14T19:03:39.057Z,50.60
2022-09-14T19:06:07.997Z,49.90
2022-09-14T19:08:35.607Z,50.10
2022-09-14T19:11:11.368Z,50.60
2022-09-14T19:13:38.451Z,50.80
2022-09-14T19:16:10.178Z,50.60
2022-09-14T19:18:37.007Z,50.60
2022-09-14T19:21:09.077Z,51.10
2022-09-14T19:23:36.919Z,51.60
2022-09-14T19:26:05.720Z,51.70
2022-09-14T19:28:33.449Z,51.30
2022-09-14T19:31:03.977Z,51.80
2022-09-14T19:33:31.470Z,51.70
2022-09-14T19:36:06.289Z,52.10
2022-09-14T19:38:33.299Z,52.30
2022-09-14T19:41:00.463Z,52.40
2022-09-14T19:43:28.047Z,52.50
2022-09-14T19:45:54.907Z,52.60
2022-09-14T19:48:21.722Z,52.70
2022-09-14T19:50:48.909Z,52.60
2022-09-14T19:53:15.600Z,52.60
2022-09-14T19:55:42.332Z,52.80
2022-09-14T19:58:09.166Z,52.90
2022-09-14T20:00:36.390Z,52.60
2022-09-14T20:03:03.822Z,52.70
2022-09-14T20:05:30.688Z,52.70
2022-09-14T20:07:57.494Z,52.40
2022-09-14T20:10:24.324Z,52.50
2022-09-14T20:12:51.052Z,52.60
2022-09-14T20:15:17.719Z,52.40
2022-09-14T20:17:44.468Z,52.60
2022-09-14T20:20:11.622Z,52.80
2022-09-14T20:22:38.315Z,53.20
2022-09-14T20:25:05.479Z,53.40
2022-09-14T20:27:32.173Z,53.10
2022-09-14T20:29:58.857Z,53.40
2022-09-14T20:32:25.576Z,54.30
2022-09-14T20:34:52.365Z,53.70
2022-09-14T20:37:19.118Z,53.50
2022-09-14T20:39:47.052Z,53.80
2022-09-14T20:42:13.805Z,53.90
2022-09-14T20:44:40.624Z,54.10
2022-09-14T20:47:07.385Z,54.10
2022-09-14T20:49:34.251Z,54.00
2022-09-14T20:52:02.913Z,54.00
2022-09-14T20:54:30.055Z,53.90
2022-09-14T20:57:00.995Z,54.20
2022-09-14T20:59:30.501Z,54.40
2022-09-14T21:01:57.351Z,54.40
2022-09-14T21:04:25.620Z,54.70
2022-09-14T21:06:55.566Z,55.00
2022-09-14T21:09:24.793Z,55.00
2022-09-14T21:11:52.264Z,55.00
2022-09-14T21:14:20.103Z,54.90
2022-09-14T21:16:48.761Z,54.70
2022-09-14T21:19:19.430Z,54.60
2022-09-14T21:21:47.464Z,54.70
2022-09-14T21:24:15.651Z,55.00
2022-09-14T21:26:43.989Z,55.10
2022-09-14T21:29:17.248Z,55.10
2022-09-14T21:31:44.615Z,55.10
2022-09-14T21:34:12.087Z,55.20
2022-09-14T21:36:42.214Z,55.10
2022-09-14T21:39:14.835Z,55.30
2022-09-14T21:41:43.257Z,55.20
2022-09-14T21:44:10.207Z,55.10
2022-09-14T21:46:37.430Z,55.10
2022-09-14T21:49:04.318Z,55.20
2022-09-14T21:51:33.891Z,55.20
2022-09-14T21:54:06.544Z,55.20
2022-09-14T21:56:36.866Z,55.30
2022-09-14T21:59:06.624Z,55.30
2022-09-14T22:01:33.657Z,55.60
2022-09-14T22:04:00.440Z,55.50
2022-09-14T22:06:29.324Z,55.40
2022-09-14T22:08:59.752Z,55.40
2022-09-14T22:11:29.985Z,55.50
2022-09-14T22:14:14.689Z,55.80
2022-09-14T22:16:42.090Z,55.60
2022-09-14T22:19:20.709Z,55.70
2022-09-14T22:21:48.171Z,55.50
2022-09-14T22:24:18.156Z,55.80
2022-09-14T22:26:46.387Z,55.80
2022-09-14T22:29:14.402Z,55.90
2022-09-14T22:31:42.724Z,56.00
2022-09-14T22:34:09.953Z,56.00
2022-09-14T22:36:37.492Z,56.10
2022-09-14T22:39:05.424Z,56.30
2022-09-14T22:41:32.446Z,56.00
2022-09-14T22:43:59.240Z,56.00
2022-09-14T22:46:26.636Z,55.90
2022-09-14T22:48:53.893Z,56.00
2022-09-14T22:51:26.149Z,56.10
2022-09-14T22:53:53.248Z,55.80
2022-09-14T22:56:25.946Z,55.90
2022-09-14T22:58:53.214Z,55.80
2022-09-14T23:01:30.352Z,55.80
2022-09-14T23:03:59.709Z,55.70
2022-09-14T23:06:32.722Z,55.60
2022-09-14T23:09:02.987Z,55.60
2022-09-14T23:11:30.430Z,55.70
2022-09-14T23:13:58.769Z,55.80
2022-09-14T23:16:27.529Z,55.60
2022-09-14T23:18:57.139Z,55.70
2022-09-14T23:21:24.650Z,55.70
2022-09-14T23:23:56.739Z,55.80
2022-09-14T23:26:23.811Z,55.80
2022-09-14T23:28:55.888Z,55.70
2022-09-14T23:31:23.356Z,55.70
2022-09-14T23:33:55.208Z,55.60
2022-09-14T23:36:23.307Z,55.60
2022-09-14T23:38:50.803Z,55.50
2022-09-14T23:41:19.445Z,55.50
2022-09-14T23:43:47.089Z,55.50
2022-09-14T23:46:14.704Z,55.50
2022-09-14T23:48:41.833Z,55.40
2022-09-14T23:51:09.719Z,55.30
2022-09-14T23:53:37.674Z,55.20
2022-09-14T23:56:05.172Z,55.30
2022-09-14T23:58:32.482Z,55.60
